createdAt,value
2019-01-31T00:00:37.017Z,10.76
2019-01-31T00:05:20.546Z,10.71
2019-01-31T00:09:13.826Z,10.68
2019-01-31T00:12:52.728Z,10.63
2019-01-31T00:16:38.267Z,10.56
2019-01-31T00:20:32.190Z,10.44
2019-01-31T00:25:14.991Z,10.4
2019-01-31T00:29:24.077Z,10.29
2019-01-31T00:33:18.806Z,10.22
2019-01-31T00:36:55.826Z,10.25
2019-01-31T00:40:36.627Z,10.24
2019-01-31T00:44:20.245Z,10.17
2019-01-31T00:47:59.500Z,10.04
2019-01-31T00:51:39.276Z,9.92
2019-01-31T01:00:36.538Z,9.95
2019-01-31T01:04:17.905Z,10.08
2019-01-31T01:08:06.555Z,10.16
2019-01-31T01:11:58.545Z,10.24
2019-01-31T01:15:38.869Z,10.31
2019-01-31T01:24:54.305Z,10.22
2019-01-31T01:28:38.475Z,10.17
2019-01-31T01:32:34.814Z,10.1
2019-01-31T01:36:13.615Z,10.05
2019-01-31T01:40:30.320Z,10.08
2019-01-31T01:44:13.444Z,10.11
2019-01-31T01:47:50.426Z,9.97
2019-01-31T01:52:34.689Z,9.81
2019-01-31T01:56:16.244Z,9.67
2019-01-31T02:00:31.264Z,9.55
2019-01-31T02:04:07.184Z,9.55
2019-01-31T02:07:48.019Z,9.52
2019-01-31T02:11:31.493Z,9.49
2019-01-31T02:15:18.344Z,9.51
2019-01-31T02:20:17.365Z,9.54
2019-01-31T02:23:56.166Z,9.59
2019-01-31T02:27:41.803Z,9.65
2019-01-31T02:31:25.383Z,9.77
2019-01-31T02:37:40.234Z,9.84
2019-01-31T02:44:38.203Z,9.76
2019-01-31T02:48:20.093Z,9.58
2019-01-31T02:52:03.331Z,9.65
2019-01-31T02:55:48.442Z,9.73
2019-01-31T02:59:35.382Z,9.76
2019-01-31T03:03:23.842Z,9.76
2019-01-31T03:09:39.980Z,9.81
2019-01-31T03:13:32.287Z,9.74
2019-01-31T03:18:25.281Z,9.74
2019-01-31T03:24:28.762Z,9.71
2019-01-31T03:28:14.331Z,9.81
2019-01-31T03:31:56.831Z,9.77
2019-01-31T03:35:51.331Z,9.79
2019-01-31T03:40:38.912Z,9.73
2019-01-31T03:44:19.831Z,9.61
2019-01-31T03:48:07.852Z,9.57
2019-01-31T03:51:48.821Z,9.44
2019-01-31T03:55:28.221Z,9.48
2019-01-31T03:59:04.460Z,9.39
2019-01-31T04:00:27.180Z,9.38
2019-01-31T04:04:03.190Z,9.27
2019-01-31T04:07:33.371Z,9.24
2019-01-31T04:11:03.570Z,9.29
2019-01-31T04:14:33.680Z,9.33
2019-01-31T04:18:04.062Z,9.3
2019-01-31T04:21:34.050Z,9.36
2019-01-31T04:25:04.539Z,9.33
2019-01-31T04:28:35.634Z,9.33
2019-01-31T04:32:05.760Z,9.31
2019-01-31T04:35:35.903Z,9.24
2019-01-31T04:39:07.091Z,9.22
2019-01-31T04:42:37.090Z,9.11
2019-01-31T04:46:07.179Z,9.09
2019-01-31T04:49:37.320Z,9.05
2019-01-31T04:53:07.419Z,9.13
2019-01-31T04:56:37.418Z,9.17
2019-01-31T05:00:10.537Z,9.26
2019-01-31T05:03:40.588Z,9.33
2019-01-31T05:07:10.663Z,9.29
2019-01-31T05:10:43.173Z,9.34
2019-01-31T05:14:13.528Z,9.24
2019-01-31T05:17:43.612Z,9.12
2019-01-31T05:21:13.698Z,8.98
2019-01-31T05:24:43.779Z,8.96
2019-01-31T05:28:13.840Z,8.82
2019-01-31T05:31:44.908Z,8.82
2019-01-31T05:35:15.188Z,8.94
2019-01-31T05:38:45.337Z,9
2019-01-31T05:42:15.908Z,8.97
2019-01-31T05:45:45.977Z,8.98
2019-01-31T05:49:16.167Z,8.93
2019-01-31T05:52:46.298Z,8.92
2019-01-31T05:56:16.356Z,8.92
2019-01-31T05:59:46.417Z,8.94
2019-01-31T06:00:19.536Z,8.93
2019-01-31T06:03:49.596Z,8.99
2019-01-31T06:07:19.726Z,8.95
2019-01-31T06:10:49.707Z,8.94
2019-01-31T06:14:19.766Z,8.98
2019-01-31T06:17:49.905Z,9.04
2019-01-31T06:21:19.976Z,9.16
2019-01-31T06:24:50.121Z,9.09
2019-01-31T06:28:20.169Z,9.12
2019-01-31T06:31:51.310Z,9.25
2019-01-31T06:35:21.445Z,9.4
2019-01-31T06:38:51.534Z,9.5
2019-01-31T06:42:21.624Z,9.41
2019-01-31T06:45:51.814Z,9.57
2019-01-31T06:49:21.884Z,9.77
2019-01-31T06:52:52.144Z,9.88
2019-01-31T06:56:22.273Z,10.11
2019-01-31T06:59:52.506Z,10.19
2019-01-31T07:03:22.564Z,10.23
2019-01-31T07:06:52.735Z,10.34
2019-01-31T07:10:24.570Z,10.51
2019-01-31T07:13:54.659Z,10.69
2019-01-31T07:17:24.704Z,10.7
2019-01-31T07:20:54.863Z,10.83
2019-01-31T07:24:24.914Z,10.93
2019-01-31T07:27:55.095Z,10.93
2019-01-31T07:31:25.243Z,10.79
2019-01-31T07:34:56.333Z,10.8
2019-01-31T07:38:26.403Z,10.81
2019-01-31T07:41:56.533Z,10.85
2019-01-31T07:45:28.434Z,10.87
2019-01-31T07:48:58.521Z,11.1
2019-01-31T07:52:28.734Z,11.42
2019-01-31T07:55:58.934Z,11.72
2019-01-31T07:59:29.023Z,11.64
2019-01-31T08:00:16.473Z,11.72
2019-01-31T08:03:46.523Z,11.82
2019-01-31T08:07:16.543Z,11.93
2019-01-31T08:10:46.752Z,12.15
2019-01-31T08:14:16.793Z,12.17
2019-01-31T08:17:46.923Z,12.34
2019-01-31T08:21:16.955Z,12.49
2019-01-31T08:24:47.123Z,12.39
2019-01-31T08:28:17.273Z,12.56
2019-01-31T08:31:47.455Z,12.64
2019-01-31T08:35:18.492Z,12.68
2019-01-31T08:38:48.463Z,12.64
2019-01-31T08:42:18.645Z,12.63
2019-01-31T08:45:48.733Z,12.28
2019-01-31T08:49:18.973Z,12.44
2019-01-31T08:52:49.125Z,12.42
2019-01-31T08:56:19.224Z,12.28
2019-01-31T08:59:49.312Z,12.27
2019-01-31T09:03:19.504Z,12.26
2019-01-31T09:06:49.613Z,12.23
2019-01-31T09:10:22.104Z,12.3
2019-01-31T09:13:52.193Z,12.24
2019-01-31T09:17:22.257Z,12.28
2019-01-31T09:20:59.656Z,12.25
2019-01-31T09:27:47.677Z,12
2019-01-31T09:32:34.351Z,11.8
2019-01-31T09:37:22.837Z,12.04
2019-01-31T09:41:08.383Z,12.12
2019-01-31T09:45:17.947Z,12.11
2019-01-31T09:57:06.078Z,12.16
2019-01-31T10:00:27.942Z,12.3
2019-01-31T10:04:20.177Z,12.57
2019-01-31T10:09:39.002Z,12.74
2019-01-31T10:15:00.357Z,12.86
2019-01-31T10:19:46.444Z,13.2
2019-01-31T10:25:04.184Z,13.68
2019-01-31T10:29:53.193Z,13.83
2019-01-31T10:33:35.207Z,13.82
2019-01-31T10:37:14.077Z,13.81
2019-01-31T10:46:45.387Z,14.33
2019-01-31T10:51:37.957Z,14.24
2019-01-31T10:55:21.387Z,14.35
2019-01-31T10:59:04.228Z,14.63
2019-01-31T11:04:19.607Z,15.14
2019-01-31T11:07:59.671Z,15.05
2019-01-31T11:11:48.131Z,15.11
2019-01-31T11:18:30.578Z,15.29
2019-01-31T11:24:39.128Z,14.29
2019-01-31T11:28:24.358Z,14.07
2019-01-31T11:32:24.008Z,14.48
2019-01-31T11:36:36.088Z,14.97
2019-01-31T11:40:23.648Z,15.23
2019-01-31T11:47:38.598Z,14.72
2019-01-31T11:51:54.624Z,14.45
2019-01-31T11:55:37.639Z,14.24
2019-01-31T11:59:07.929Z,14.55
2019-01-31T12:00:18.813Z,14.73
2019-01-31T12:03:51.979Z,15.14
2019-01-31T12:07:22.219Z,15.51
2019-01-31T12:10:52.539Z,15.8
2019-01-31T12:14:22.679Z,15.86
2019-01-31T12:17:52.949Z,15.89
2019-01-31T12:21:23.239Z,15.72
2019-01-31T12:24:53.481Z,15.72
2019-01-31T12:28:23.651Z,15.65
2019-01-31T12:31:53.941Z,15.37
2019-01-31T12:35:24.084Z,14.78
2019-01-31T12:38:54.982Z,14.34
2019-01-31T12:42:26.350Z,14.05
2019-01-31T12:45:57.150Z,13.85
2019-01-31T12:49:27.480Z,13.75
2019-01-31T12:52:57.811Z,13.8
2019-01-31T12:56:28.073Z,13.72
2019-01-31T12:59:58.331Z,13.88
2019-01-31T13:03:28.490Z,13.79
2019-01-31T13:06:58.701Z,13.82
2019-01-31T13:10:28.921Z,13.84
2019-01-31T13:13:59.301Z,13.9
2019-01-31T13:17:29.501Z,13.8
2019-01-31T13:20:59.822Z,14
2019-01-31T13:24:30.132Z,14.15
2019-01-31T13:28:00.332Z,14.27
2019-01-31T13:31:30.581Z,14.27
2019-01-31T13:35:00.802Z,14.23
2019-01-31T13:38:31.082Z,14.19
2019-01-31T13:42:01.283Z,14.08
2019-01-31T13:45:34.752Z,13.82
2019-01-31T13:49:04.993Z,13.81
2019-01-31T13:52:35.173Z,13.8
2019-01-31T13:56:06.644Z,13.76
2019-01-31T13:59:36.893Z,13.78
2019-01-31T14:00:16.663Z,13.78
2019-01-31T14:03:46.845Z,13.64
2019-01-31T14:07:17.072Z,13.52
2019-01-31T14:10:47.221Z,13.44
2019-01-31T14:14:17.310Z,13.43
2019-01-31T14:17:47.450Z,13.47
2019-01-31T14:21:17.482Z,13.35
2019-01-31T14:24:47.650Z,13.25
2019-01-31T14:28:17.800Z,13.15
2019-01-31T14:31:47.935Z,12.93
2019-01-31T14:35:18.000Z,12.68
2019-01-31T14:38:48.148Z,12.6
2019-01-31T14:42:18.300Z,12.38
2019-01-31T14:45:49.301Z,12.38
2019-01-31T14:49:19.380Z,12.21
2019-01-31T14:52:49.730Z,12.1
2019-01-31T14:56:19.950Z,12.06
2019-01-31T14:59:49.990Z,12.02
2019-01-31T15:03:20.110Z,11.92
2019-01-31T15:06:50.300Z,12
2019-01-31T15:10:23.270Z,11.92
2019-01-31T15:13:53.391Z,11.98
2019-01-31T15:17:23.450Z,12
2019-01-31T15:20:53.610Z,12.05
2019-01-31T15:24:23.673Z,12.06
2019-01-31T15:27:53.800Z,12.08
2019-01-31T15:31:24.001Z,12.05
2019-01-31T15:34:54.190Z,11.98
2019-01-31T15:38:24.220Z,11.94
2019-01-31T15:41:54.330Z,11.87
2019-01-31T15:45:24.420Z,11.87
2019-01-31T15:48:55.500Z,11.83
2019-01-31T15:52:25.530Z,11.9
2019-01-31T15:55:55.690Z,11.87
2019-01-31T15:59:25.821Z,11.76
2019-01-31T16:00:21.860Z,11.75
2019-01-31T16:03:52.150Z,11.83
2019-01-31T16:07:22.250Z,11.76
2019-01-31T16:10:52.577Z,11.79
2019-01-31T16:14:22.767Z,11.83
2019-01-31T16:17:52.850Z,11.85
2019-01-31T16:21:23.012Z,11.85
2019-01-31T16:24:53.122Z,11.87
2019-01-31T16:28:23.114Z,11.85
2019-01-31T16:31:53.290Z,11.88
2019-01-31T16:35:23.399Z,11.85
2019-01-31T16:38:53.471Z,11.83
2019-01-31T16:42:23.589Z,11.75
2019-01-31T16:45:53.819Z,11.77
2019-01-31T16:49:25.030Z,11.66
2019-01-31T16:52:55.141Z,11.53
2019-01-31T16:56:25.210Z,11.41
2019-01-31T16:59:55.260Z,11.15
2019-01-31T17:03:25.375Z,11.15
2019-01-31T17:06:55.519Z,11.01
2019-01-31T17:10:25.619Z,11.05
2019-01-31T17:13:55.821Z,10.88
2019-01-31T17:17:25.919Z,10.64
2019-01-31T17:20:56.080Z,10.68
2019-01-31T17:24:26.109Z,10.76
2019-01-31T17:27:56.479Z,10.74
2019-01-31T17:31:26.550Z,10.82
2019-01-31T17:34:56.839Z,10.87
2019-01-31T17:38:26.959Z,10.87
2019-01-31T17:41:57.099Z,10.89
2019-01-31T17:45:30.336Z,10.94
2019-01-31T17:49:01.145Z,10.94
2019-01-31T17:52:32.111Z,10.98
2019-01-31T17:56:02.218Z,10.95
2019-01-31T17:59:32.309Z,10.99
2019-01-31T18:00:19.539Z,10.88
2019-01-31T18:03:49.799Z,10.82
2019-01-31T18:07:19.918Z,10.62
2019-01-31T18:10:50.083Z,10.65
2019-01-31T18:14:20.089Z,10.55
2019-01-31T18:17:50.260Z,10.29
2019-01-31T18:21:20.428Z,9.92
2019-01-31T18:24:50.528Z,9.79
2019-01-31T18:28:20.670Z,9.59
2019-01-31T18:31:50.818Z,9.52
2019-01-31T18:35:20.998Z,9.63
2019-01-31T18:38:51.101Z,9.69
2019-01-31T18:42:21.209Z,9.77
2019-01-31T18:45:53.553Z,9.94
2019-01-31T18:49:23.848Z,10.04
2019-01-31T18:52:54.947Z,10.14
2019-01-31T18:56:25.027Z,10.18
2019-01-31T18:59:55.250Z,10.26
2019-01-31T19:03:25.347Z,10.09
2019-01-31T19:06:55.447Z,9.72
2019-01-31T19:10:25.507Z,9.62
2019-01-31T19:13:55.597Z,9.54
2019-01-31T19:17:25.760Z,9.57
2019-01-31T19:20:55.946Z,9.47
2019-01-31T19:24:26.087Z,9.43
2019-01-31T19:27:56.310Z,9.52
2019-01-31T19:31:26.362Z,9.56
2019-01-31T19:34:56.536Z,9.41
2019-01-31T19:38:26.547Z,9.4
2019-01-31T19:41:56.666Z,9.4
2019-01-31T19:45:30.847Z,9.53
2019-01-31T19:49:00.978Z,9.59
2019-01-31T19:52:30.975Z,9.64
2019-01-31T19:56:02.231Z,9.76
2019-01-31T19:59:32.277Z,9.81
2019-01-31T20:00:18.276Z,9.8
2019-01-31T20:03:48.377Z,9.82
2019-01-31T20:07:18.496Z,9.87
2019-01-31T20:10:48.715Z,9.76
2019-01-31T20:14:18.955Z,9.69
2019-01-31T20:17:49.185Z,9.58
2019-01-31T20:21:19.276Z,9.54
2019-01-31T20:24:49.423Z,9.64
2019-01-31T20:28:19.466Z,9.72
2019-01-31T20:31:49.657Z,9.8
2019-01-31T20:35:19.864Z,9.89
2019-01-31T20:38:50.005Z,9.93
2019-01-31T20:42:20.064Z,9.9
2019-01-31T20:45:50.147Z,9.86
2019-01-31T20:49:20.224Z,9.84
2019-01-31T20:52:50.624Z,9.81
2019-01-31T20:56:20.966Z,9.79
2019-01-31T20:59:50.986Z,9.54
2019-01-31T21:03:21.330Z,9.44
2019-01-31T21:06:51.443Z,9.22
2019-01-31T21:10:21.600Z,9.22
2019-01-31T21:13:51.759Z,9.23
2019-01-31T21:17:21.724Z,9.22
2019-01-31T21:20:51.893Z,9.18
2019-01-31T21:24:21.873Z,9.03
2019-01-31T21:27:52.124Z,8.9
2019-01-31T21:31:22.222Z,8.72
2019-01-31T21:34:52.392Z,8.55
2019-01-31T21:38:22.494Z,8.51
2019-01-31T21:41:52.742Z,8.5
2019-01-31T21:45:23.133Z,8.44
2019-01-31T21:48:53.261Z,8.44
2019-01-31T21:52:23.312Z,8.58
2019-01-31T21:55:53.490Z,8.67
2019-01-31T21:59:24.641Z,8.68
2019-01-31T22:00:19.230Z,8.7
2019-01-31T22:03:49.361Z,8.76
2019-01-31T22:07:19.421Z,8.83
2019-01-31T22:10:49.631Z,8.89
2019-01-31T22:14:19.700Z,8.86
2019-01-31T22:17:50.081Z,8.87
2019-01-31T22:21:20.152Z,8.87
2019-01-31T22:24:50.240Z,8.97
2019-01-31T22:28:20.269Z,8.91
2019-01-31T22:31:50.319Z,8.86
2019-01-31T22:35:20.654Z,8.9
2019-01-31T22:38:50.829Z,8.91
2019-01-31T22:42:20.938Z,8.96
2019-01-31T22:45:51.028Z,8.79
2019-01-31T22:49:21.108Z,8.56
2019-01-31T22:52:51.220Z,8.55
2019-01-31T22:56:21.368Z,8.73
2019-01-31T22:59:52.490Z,8.77
2019-01-31T23:03:22.857Z,8.67
2019-01-31T23:06:52.967Z,8.54
2019-01-31T23:10:22.988Z,8.58
2019-01-31T23:13:53.171Z,8.46
2019-01-31T23:17:23.257Z,8.39
2019-01-31T23:20:53.327Z,8.38
2019-01-31T23:24:23.397Z,8.43
2019-01-31T23:27:53.507Z,8.39
2019-01-31T23:31:23.605Z,8.41
2019-01-31T23:34:53.645Z,8.41
2019-01-31T23:38:23.776Z,8.36
2019-01-31T23:41:53.866Z,8.34
2019-01-31T23:45:24.023Z,8.22
2019-01-31T23:48:54.142Z,8.17
2019-01-31T23:52:24.241Z,8.08
2019-01-31T23:55:54.274Z,7.97
2019-01-31T23:59:24.254Z,7.86
